TimeEDT,TemperatureF,Dew PointF,Humidity,Sea Level PressureIn,VisibilityMPH,Wind Direction,Wind SpeedMPH,Gust SpeedMPH,PrecipitationIn,Events,Conditions,WindDirDegrees,DateUTC
12:54 AM,61.0,57.9,90,30.06,4.0,East,3.5,-,N/A,,Overcast,100,2012-10-03 04:54:00
1:45 AM,60.8,59.0,94,30.06,5.0,Calm,Calm,-,N/A,,Overcast,0,2012-10-03 05:45:00
1:54 AM,61.0,59.0,93,30.06,4.0,ENE,3.5,-,N/A,,Overcast,70,2012-10-03 05:54:00
2:54 AM,60.1,57.9,93,30.04,6.0,ENE,3.5,-,0.00,,Overcast,70,2012-10-03 06:54:00
3:54 AM,60.1,57.9,93,30.05,6.0,East,4.6,-,N/A,,Overcast,90,2012-10-03 07:54:00
4:54 AM,60.1,57.9,93,30.06,5.0,NNE,5.8,-,N/A,,Overcast,30,2012-10-03 08:54:00
5:54 AM,61.0,57.9,90,30.07,9.0,NE,4.6,-,N/A,,Overcast,50,2012-10-03 09:54:00
6:01 AM,60.8,57.2,88,30.07,10.0,Calm,Calm,-,N/A,,Overcast,0,2012-10-03 10:01:00
6:54 AM,61.0,57.9,90,30.08,10.0,ENE,4.6,-,N/A,,Overcast,70,2012-10-03 10:54:00
7:54 AM,61.0,57.9,90,30.10,5.0,NNE,4.6,-,N/A,,Overcast,30,2012-10-03 11:54:00
8:04 AM,60.8,57.2,88,30.10,7.0,NE,4.6,-,N/A,,Overcast,40,2012-10-03 12:04:00
8:54 AM,61.0,57.9,90,30.10,8.0,ENE,5.8,-,N/A,,Overcast,70,2012-10-03 12:54:00
9:02 AM,60.8,57.2,88,30.10,8.0,East,6.9,-,N/A,,Overcast,80,2012-10-03 13:02:00
9:44 AM,62.6,59.0,88,30.11,2.0,NE,8.1,-,N/A,,Overcast,50,2012-10-03 13:44:00
9:54 AM,62.1,59.0,90,30.11,2.0,ENE,5.8,-,N/A,,Overcast,60,2012-10-03 13:54:00
10:01 AM,62.6,60.8,94,30.11,2.0,NE,4.6,-,N/A,,Overcast,50,2012-10-03 14:01:00
10:54 AM,63.0,60.1,90,30.10,0.5,ENE,6.9,-,N/A,,Overcast,60,2012-10-03 14:54:00
11:54 AM,63.0,61.0,93,30.10,0.2,ENE,5.8,-,0.00,Fog,Drizzle,70,2012-10-03 15:54:00
12:54 PM,63.0,62.1,97,30.10,0.2,ENE,6.9,-,0.01,,Light Drizzle,60,2012-10-03 16:54:00
1:54 PM,63.0,61.0,93,30.09,0.2,NE,8.1,-,0.01,Fog-Rain,Light Rain,50,2012-10-03 17:54:00
2:54 PM,62.1,61.0,96,30.10,0.2,NE,8.1,-,0.00,,Light Drizzle,50,2012-10-03 18:54:00
3:54 PM,61.0,60.1,97,30.10,0.2,NE,8.1,-,0.01,Fog,Light Drizzle,40,2012-10-03 19:54:00
4:54 PM,61.0,60.1,97,30.11,0.2,NE,6.9,-,0.00,Fog,Light Drizzle,40,2012-10-03 20:54:00
5:54 PM,61.0,60.1,97,30.12,0.2,NE,5.8,-,0.00,Fog,Light Drizzle,50,2012-10-03 21:54:00
6:02 PM,60.8,60.8,100,30.12,0.2,NE,6.9,-,0.00,,Light Drizzle,50,2012-10-03 22:02:00
6:09 PM,60.8,60.8,100,30.12,0.2,NNE,5.8,-,0.00,,Light Drizzle,30,2012-10-03 22:09:00
6:43 PM,60.8,60.8,100,30.13,0.2,NNE,5.8,-,0.00,,Light Drizzle,20,2012-10-03 22:43:00
6:54 PM,61.0,60.1,97,30.13,0.2,NNE,6.9,-,0.00,,Light Drizzle,20,2012-10-03 22:54:00
7:32 PM,60.8,60.8,100,30.13,1.2,NNE,5.8,-,0.00,,Light Drizzle,30,2012-10-03 23:32:00
7:54 PM,61.0,60.1,97,30.14,1.2,NNE,5.8,-,0.00,,Light Drizzle,30,2012-10-03 23:54:00
8:14 PM,60.8,59.0,94,30.13,0.5,NNE,6.9,-,0.00,,Light Drizzle,30,2012-10-04 00:14:00
8:54 PM,60.1,59.0,96,30.15,0.5,NNE,5.8,-,0.00,,Light Drizzle,30,2012-10-04 00:54:00
9:12 PM,60.8,59.0,94,30.15,1.5,NNE,6.9,-,0.00,Rain,Light Rain,30,2012-10-04 01:12:00
9:54 PM,60.1,59.0,96,30.16,1.0,NNE,5.8,-,0.00,,Light Drizzle,30,2012-10-04 01:54:00
10:15 PM,60.8,59.0,94,30.16,1.0,NNE,4.6,-,0.00,,Light Drizzle,20,2012-10-04 02:15:00
10:54 PM,60.1,59.0,96,30.15,1.0,NNE,5.8,-,0.00,,Light Drizzle,30,2012-10-04 02:54:00
11:54 PM,60.1,59.0,96,30.17,1.0,North,4.6,-,0.00,,Light Drizzle,10,2012-10-04 03:54:00